Time;durP1;ratioP1;P1;durP2;ratioP2;P2;SDS_P1;SDS_P2;PMS_P1;PMS_P2;Temp;Humidity;BMP_temperature;BMP_pressure;BME280_temperature;BME280_humidity;BME280_pressure;Samples;Min_cycle;Max_cycle;Signal;HPM_P1;HPM_P2
2023/06/12 00:01:50;;;;;;;;;;;;;;;17.51;100.00;94697.16;5036184;28;1445;-56
2023/06/12 00:04:17;;;;;;;;;;;;;;;17.42;100.00;94693.91;5052916;28;1617;-56
2023/06/12 00:06:43;;;;;;;;;;;;;;;17.45;100.00;94695.34;5041719;28;2958;-56
2023/06/12 00:09:10;;;;;;;;;;;;;;;17.51;100.00;94691.78;5033076;28;969;-56
2023/06/12 00:11:39;;;;;;;;;;;;;;;17.58;100.00;94689.88;5033127;28;1111;-56
2023/06/12 00:14:06;;;;;;;;;;;;;;;17.55;100.00;94690.31;5033148;28;1995;-56
2023/06/12 00:16:33;;;;;;;;;;;;;;;17.53;100.00;94687.81;5036228;28;1120;-56
2023/06/12 00:19:00;;;;;;;;;;;;;;;17.44;100.00;94685.59;5037117;28;1041;-56
2023/06/12 00:21:26;;;;;;;;;;;;;;;17.27;100.00;94693.34;5036947;28;961;-56
2023/06/12 00:23:52;;;;;;;;;;;;;;;17.13;100.00;94692.53;5036980;28;961;-56
2023/06/12 00:26:18;;;;;;;;;;;;;;;17.11;100.00;94698.19;5037254;28;1287;-56
2023/06/12 00:28:45;;;;;;;;;;;;;;;17.16;100.00;94695.66;5036906;28;1057;-56
2023/06/12 00:31:11;;;;;;;;;;;;;;;17.24;100.00;94697.28;5035773;28;1010;-56
2023/06/12 00:33:37;;;;;;;;;;;;;;;17.22;100.00;94695.84;5037025;28;1999;-56
2023/06/12 00:36:03;;;;;;;;;;;;;;;17.23;100.00;94700.22;5036995;28;957;-56
2023/06/12 00:38:30;;;;;;;;;;;;;;;17.20;100.00;94696.06;5036912;28;965;-56
2023/06/12 00:40:56;;;;;;;;;;;;;;;17.25;100.00;94696.25;5036946;28;965;-56
2023/06/12 00:43:22;;;;;;;;;;;;;;;17.29;100.00;94700.19;5036886;28;1064;-56
2023/06/12 00:45:48;;;;;;;;;;;;;;;17.37;100.00;94701.81;5036692;28;985;-56
2023/06/12 00:48:14;;;;;;;;;;;;;;;17.30;100.00;94698.31;5036631;28;1048;-56
2023/06/12 00:50:41;;;;;;;;;;;;;;;17.35;100.00;94695.81;5036506;28;977;-56
2023/06/12 00:53:07;;;;;;;;;;;;;;;17.43;100.00;94695.56;5036306;28;1991;-56
2023/06/12 00:55:33;;;;;;;;;;;;;;;17.49;100.00;94693.84;5036632;28;1060;-56
2023/06/12 00:58:03;;;;;;;;;;;;;;;17.43;100.00;94697.44;5035402;28;965;-56
2023/06/12 01:00:30;;;;;;;;;;;;;;;17.34;100.00;94696.88;5036421;28;1025;-56
2023/06/12 01:03:03;;;;;;;;;;;;;;;17.36;100.00;94698.28;5048027;28;1441;-56
2023/06/12 01:05:33;;;;;;;;;;;;;;;17.42;100.00;94699.31;5055838;28;1158;-56
2023/06/12 01:08:05;;;;;;;;;;;;;;;17.50;100.00;94701.75;5056310;28;968;-56
2023/06/12 01:10:40;;;;;;;;;;;;;;;17.53;100.00;94692.41;5056242;28;969;-56
2023/06/12 01:13:09;;;;;;;;;;;;;;;17.52;100.00;94699.66;5055986;28;2104;-56
2023/06/12 01:15:36;;;;;;;;;;;;;;;17.53;100.00;94700.53;5056010;28;1028;-56
2023/06/12 01:18:03;;;;;;;;;;;;;;;17.55;100.00;94709.25;5055884;28;1049;-56
2023/06/12 01:20:29;;;;;;;;;;;;;;;17.58;100.00;94708.78;5056015;28;1059;-56
2023/06/12 01:23:00;;;;;;;;;;;;;;;17.59;100.00;94702.34;5056027;28;960;-56
2023/06/12 01:25:32;;;;;;;;;;;;;;;17.62;100.00;94707.31;5054660;28;1004;-56
2023/06/12 01:28:15;;;;;;;;;;;;;;;17.63;100.00;94702.75;5055840;28;969;-56
2023/06/12 01:30:42;;;;;;;;;;;;;;;17.63;100.00;94700.06;5055986;28;1044;-56
2023/06/12 01:33:12;;;;;;;;;;;;;;;17.67;100.00;94696.69;5055863;28;1918;-56
2023/06/12 01:35:40;;;;;;;;;;;;;;;17.63;100.00;94700.06;5055833;28;1059;-56
2023/06/12 01:38:26;;;;;;;;;;;;;;;17.61;100.00;94702.97;5055741;28;980;-55
2023/06/12 01:40:53;;;;;;;;;;;;;;;17.54;100.00;94694.88;5055448;28;1138;-56
2023/06/12 01:43:21;;;;;;;;;;;;;;;17.42;100.00;94704.72;5055618;28;1031;-56
2023/06/12 01:45:47;;;;;;;;;;;;;;;17.42;100.00;94704.72;5055397;28;1053;-56
2023/06/12 01:48:14;;;;;;;;;;;;;;;17.50;100.00;94706.34;5055208;28;917;-56
2023/06/12 01:50:40;;;;;;;;;;;;;;;17.54;100.00;94699.47;5055368;28;1478;-56
2023/06/12 01:53:07;;;;;;;;;;;;;;;17.53;100.00;94695.94;5055259;28;1997;-56
2023/06/12 01:55:33;;;;;;;;;;;;;;;17.56;100.00;94700.06;5055199;28;1285;-56
2023/06/12 01:57:59;;;;;;;;;;;;;;;17.46;100.00;94705.13;5055182;28;1056;-56
2023/06/12 02:00:25;;;;;;;;;;;;;;;17.39;100.00;94699.72;5055378;28;961;-56
2023/06/12 02:02:56;;;;;;;;;;;;;;;17.39;100.00;94694.31;5055098;28;1437;-55
2023/06/12 02:05:22;;;;;;;;;;;;;;;17.35;100.00;94695.81;5053601;28;1366;-55
2023/06/12 02:07:48;;;;;;;;;;;;;;;17.30;100.00;94695.59;5055285;28;1004;-56
2023/06/12 02:10:15;;;;;;;;;;;;;;;17.28;100.00;94697.69;5054885;28;1017;-56
2023/06/12 02:12:43;;;;;;;;;;;;;;;17.30;100.00;94699.16;5054883;28;1054;-56
2023/06/12 02:15:10;;;;;;;;;;;;;;;17.25;100.00;94698.13;5054862;28;2000;-55
2023/06/12 02:17:37;;;;;;;;;;;;;;;17.09;100.00;94694.00;5053678;28;1033;-55
2023/06/12 02:20:04;;;;;;;;;;;;;;;17.18;100.00;94696.25;5054743;28;1037;-55
2023/06/12 02:22:30;;;;;;;;;;;;;;;17.20;100.00;94701.47;5054699;28;1100;-56
2023/06/12 02:24:59;;;;;;;;;;;;;;;17.17;100.00;94697.31;5054719;28;965;-55
2023/06/12 02:27:25;;;;;;;;;;;;;;;17.21;100.00;94692.34;5054899;28;973;-56
2023/06/12 02:29:51;;;;;;;;;;;;;;;17.25;100.00;94700.84;5054951;28;1051;-55
2023/06/12 02:32:17;;;;;;;;;;;;;;;17.18;100.00;94692.75;5054759;28;1002;-55
2023/06/12 02:34:43;;;;;;;;;;;;;;;17.13;100.00;94695.25;5054304;28;1910;-55
2023/06/12 02:37:10;;;;;;;;;;;;;;;17.09;100.00;94694.88;5054139;28;1092;-55
2023/06/12 02:39:36;;;;;;;;;;;;;;;17.11;100.00;94698.19;5053865;28;1054;-55
2023/06/12 02:42:03;;;;;;;;;;;;;;;17.07;100.00;94690.69;5054590;28;1000;-56
2023/06/12 02:44:29;;;;;;;;;;;;;;;16.93;100.00;94690.75;5054436;28;1033;-56
2023/06/12 02:46:59;;;;;;;;;;;;;;;16.92;100.00;94694.50;5054216;28;1034;-55
2023/06/12 02:49:26;;;;;;;;;;;;;;;16.91;100.00;94697.41;5054158;28;1091;-55
2023/06/12 02:51:52;;;;;;;;;;;;;;;17.02;100.00;94695.94;5054502;28;1044;-55
2023/06/12 02:54:22;;;;;;;;;;;;;;;17.06;100.00;94702.56;5054189;28;1902;-55
2023/06/12 02:56:48;;;;;;;;;;;;;;;17.06;100.00;94702.56;5054327;28;1043;-55
2023/06/12 02:59:15;;;;;;;;;;;;;;;17.12;100.00;94709.81;5053946;28;1061;-56
2023/06/12 03:01:43;;;;;;;;;;;;;;;17.15;100.00;94709.41;5054153;28;1710;-56
2023/06/12 03:04:15;;;;;;;;;;;;;;;17.20;100.00;94703.34;5053730;28;1154;-56
2023/06/12 03:06:44;;;;;;;;;;;;;;;17.20;100.00;94716.84;5053952;28;1107;-55
2023/06/12 03:09:11;;;;;;;;;;;;;;;17.12;100.00;94717.91;5053768;28;1283;-56
2023/06/12 03:11:37;;;;;;;;;;;;;;;17.00;100.00;94716.88;5053823;28;1029;-57
2023/06/12 03:14:05;;;;;;;;;;;;;;;16.83;100.00;94714.66;5053881;28;1983;-55
2023/06/12 03:16:32;;;;;;;;;;;;;;;16.81;100.00;94718.56;5053689;28;1096;-55
2023/06/12 03:18:58;;;;;;;;;;;;;;;16.79;100.00;94713.41;5053901;28;1040;-55
2023/06/12 03:21:24;;;;;;;;;;;;;;;16.85;100.00;94715.28;5053577;28;1051;-55
2023/06/12 03:23:51;;;;;;;;;;;;;;;16.91;100.00;94724.41;5053820;28;993;-55
2023/06/12 03:26:17;;;;;;;;;;;;;;;16.81;100.00;94711.31;5053714;28;965;-55
2023/06/12 03:28:44;;;;;;;;;;;;;;;16.81;100.00;94721.25;5043849;28;2893;-55
2023/06/12 03:31:10;;;;;;;;;;;;;;;16.84;100.00;94721.69;5033627;28;958;-56
2023/06/12 03:33:36;;;;;;;;;;;;;;;16.88;100.00;94724.81;5032609;28;1988;-55
2023/06/12 03:36:03;;;;;;;;;;;;;;;16.98;100.00;94722.53;5033522;28;1081;-55
2023/06/12 03:38:29;;;;;;;;;;;;;;;16.98;100.00;94727.94;5033638;28;969;-55
2023/06/12 03:40:55;;;;;;;;;;;;;;;17.03;100.00;94727.28;5033750;28;1056;-55
2023/06/12 03:43:21;;;;;;;;;;;;;;;17.00;100.00;94733.94;5031964;28;1041;-55
2023/06/12 03:45:47;;;;;;;;;;;;;;;17.04;100.00;94727.06;5016088;28;1616;-55
2023/06/12 03:48:13;;;;;;;;;;;;;;;17.04;100.00;94723.56;5041748;28;2418;-55
2023/06/12 03:50:40;;;;;;;;;;;;;;;17.06;100.00;94721.47;5031888;28;1062;-56
2023/06/12 03:53:06;;;;;;;;;;;;;;;17.18;100.00;94730.56;5033296;28;1083;-56
2023/06/12 03:55:34;;;;;;;;;;;;;;;17.18;100.00;94725.16;5033099;28;1938;-56
2023/06/12 03:58:01;;;;;;;;;;;;;;;17.15;100.00;94721.03;5033223;28;1041;-57
2023/06/12 04:00:27;;;;;;;;;;;;;;;17.00;100.00;94733.09;5033458;28;972;-56
2023/06/12 04:02:54;;;;;;;;;;;;;;;16.95;100.00;94725.63;5044584;28;1731;-56
2023/06/12 04:05:20;;;;;;;;;;;;;;;16.95;100.00;94731.03;5052892;28;1097;-56
2023/06/12 04:07:46;;;;;;;;;;;;;;;16.91;100.00;94727.94;5053379;28;1039;-56
2023/06/12 04:10:13;;;;;;;;;;;;;;;16.93;100.00;94723.16;5051997;28;1061;-56
2023/06/12 04:12:39;;;;;;;;;;;;;;;16.98;100.00;94730.63;5051927;28;1098;-56
2023/06/12 04:15:06;;;;;;;;;;;;;;;16.85;100.00;94727.97;5053104;28;1914;-56
2023/06/12 04:17:32;;;;;;;;;;;;;;;16.81;100.00;94732.06;5052934;28;968;-56
2023/06/12 04:20:00;;;;;;;;;;;;;;;16.90;100.00;94728.13;5051801;28;1280;-55
2023/06/12 04:22:27;;;;;;;;;;;;;;;16.96;100.00;94730.84;5053102;28;1025;-55
2023/06/12 04:24:54;;;;;;;;;;;;;;;16.99;100.00;94729.56;5053276;28;958;-55
2023/06/12 04:27:20;;;;;;;;;;;;;;;17.10;100.00;94726.22;5040665;28;2980;-55
2023/06/12 04:29:47;;;;;;;;;;;;;;;17.18;100.00;94730.56;5033247;28;972;-55
2023/06/12 04:32:13;;;;;;;;;;;;;;;17.17;100.00;94732.44;5031766;28;1095;-55
2023/06/12 04:34:43;;;;;;;;;;;;;;;17.10;100.00;94728.09;5032737;28;1996;-55
2023/06/12 04:37:11;;;;;;;;;;;;;;;17.06;100.00;94733.09;5032079;28;1065;-55
2023/06/12 04:39:40;;;;;;;;;;;;;;;17.14;100.00;94729.34;5032459;28;2720;-54
2023/06/12 04:42:08;;;;;;;;;;;;;;;17.14;100.00;94734.75;5032125;28;2859;-55
2023/06/12 04:44:35;;;;;;;;;;;;;;;17.09;100.00;94732.69;5032808;28;997;-55
2023/06/12 04:47:04;;;;;;;;;;;;;;;17.11;100.00;94740.56;5039931;28;3004;-55
2023/06/12 04:49:32;;;;;;;;;;;;;;;17.16;100.00;94733.47;5051411;28;2870;-54
2023/06/12 04:52:00;;;;;;;;;;;;;;;17.32;100.00;94731.34;5052944;28;1052;-54
2023/06/12 04:54:28;;;;;;;;;;;;;;;17.45;100.00;94736.69;5052567;28;1992;-55
2023/06/12 04:56:54;;;;;;;;;;;;;;;17.49;100.00;94739.81;5052591;28;1041;-55
2023/06/12 04:59:20;;;;;;;;;;;;;;;17.52;100.00;94733.97;5052547;28;1041;-55
2023/06/12 05:01:47;;;;;;;;;;;;;;;17.54;100.00;94740.00;5054074;28;1451;-55
2023/06/12 05:04:13;;;;;;;;;;;;;;;17.47;100.00;94734.63;5056030;28;1601;-55
2023/06/12 05:06:39;;;;;;;;;;;;;;;17.49;100.00;94742.50;5056400;28;964;-55
2023/06/12 05:09:07;;;;;;;;;;;;;;;17.60;100.00;94738.31;5056421;28;1076;-55
2023/06/12 05:11:33;;;;;;;;;;;;;;;17.67;100.00;94744.53;5054917;28;1052;-56
2023/06/12 05:13:59;;;;;;;;;;;;;;;17.68;100.00;94744.31;5055967;28;1914;-56
2023/06/12 05:16:25;;;;;;;;;;;;;;;17.64;100.00;94748.50;5054598;28;1005;-55
2023/06/12 05:18:51;;;;;;;;;;;;;;;17.64;100.00;94748.50;5055781;28;1041;-56
2023/06/12 05:21:19;;;;;;;;;;;;;;;17.53;100.00;94747.28;5056005;28;973;-56
2023/06/12 05:23:45;;;;;;;;;;;;;;;17.57;100.00;94750.41;5055760;28;1115;-55
2023/06/12 05:26:11;;;;;;;;;;;;;;;17.74;100.00;94746.16;5055624;28;988;-56
2023/06/12 05:28:37;;;;;;;;;;;;;;;17.88;100.00;94748.81;5055655;28;1045;-56
2023/06/12 05:31:05;;;;;;;;;;;;;;;17.97;100.00;94744.81;5055801;28;1024;-54
2023/06/12 05:33:32;;;;;;;;;;;;;;;17.97;100.00;94742.13;5055428;28;1918;-56
2023/06/12 05:35:58;;;;;;;;;;;;;;;17.94;100.00;94742.53;5055476;28;1033;-55
2023/06/12 05:38:25;;;;;;;;;;;;;;;18.00;100.00;94732.72;5055370;28;1089;-55
2023/06/12 05:40:52;;;;;;;;;;;;;;;18.11;100.00;94740.97;5054567;28;1028;-56
2023/06/12 05:43:18;;;;;;;;;;;;;;;18.05;100.00;94741.84;5055234;28;1053;-56
2023/06/12 05:45:44;;;;;;;;;;;;;;;18.01;100.00;94748.75;5054312;28;2562;-56
2023/06/12 05:48:10;;;;;;;;;;;;;;;18.13;100.00;94746.16;5035984;28;2859;-56
2023/06/12 05:50:36;;;;;;;;;;;;;;;18.12;100.00;94744.53;5034122;28;1056;-56
2023/06/12 05:53:04;;;;;;;;;;;;;;;18.20;100.00;94749.66;5035585;28;1001;-56
2023/06/12 05:55:30;;;;;;;;;;;;;;;18.21;100.00;94748.63;5035324;28;1898;-56
2023/06/12 05:57:56;;;;;;;;;;;;;;;18.29;100.00;94748.38;5035345;28;1051;-56
2023/06/12 06:00:23;;;;;;;;;;;;;;;18.35;100.00;94752.06;5033660;28;1108;-56
2023/06/12 06:02:49;;;;;;;;;;;;;;;18.43;100.00;94759.09;5045951;28;1343;-56
2023/06/12 06:05:16;;;;;;;;;;;;;;;18.56;100.00;94763.59;5054800;28;1077;-56
2023/06/12 06:07:42;;;;;;;;;;;;;;;18.49;100.00;94755.50;5055170;28;1001;-56
2023/06/12 06:10:08;;;;;;;;;;;;;;;18.45;100.00;94754.28;5054935;28;1042;-56
2023/06/12 06:12:34;;;;;;;;;;;;;;;18.43;100.00;94762.63;5054896;28;1271;-57
2023/06/12 06:15:01;;;;;;;;;;;;;;;18.31;100.00;94756.25;5053493;28;1930;-56
2023/06/12 06:17:27;;;;;;;;;;;;;;;18.38;100.00;94759.72;5053902;28;973;-57
2023/06/12 06:19:53;;;;;;;;;;;;;;;18.52;100.00;94768.59;5054773;28;1049;-57
2023/06/12 06:22:20;;;;;;;;;;;;;;;18.58;100.00;94766.91;5054626;28;1889;-57
2023/06/12 06:24:46;;;;;;;;;;;;;;;18.56;100.00;94764.41;5054751;28;953;-57
2023/06/12 06:27:12;;;;;;;;;;;;;;;18.60;100.00;94762.91;5054527;28;1053;-57
2023/06/12 06:29:38;;;;;;;;;;;;;;;18.70;100.00;94770.53;5054698;28;1044;-57
2023/06/12 06:32:04;;;;;;;;;;;;;;;18.73;100.00;94770.94;5053330;28;1105;-57
2023/06/12 06:34:30;;;;;;;;;;;;;;;18.76;100.00;94769.66;5054626;28;1910;-56
2023/06/12 06:36:56;;;;;;;;;;;;;;;18.76;100.00;94768.81;5054645;28;1000;-57
2023/06/12 06:39:23;;;;;;;;;;;;;;;18.76;100.00;94769.66;5054287;28;1061;-57
2023/06/12 06:41:49;;;;;;;;;;;;;;;18.77;100.00;94778.63;5036931;28;1642;-57
2023/06/12 06:44:16;;;;;;;;;;;;;;;18.73;100.00;94773.63;5053246;28;2230;-57
2023/06/12 06:46:42;;;;;;;;;;;;;;;18.76;100.00;94779.66;5033698;28;2865;-57
2023/06/12 06:49:08;;;;;;;;;;;;;;;18.80;100.00;94764.63;5034234;28;1089;-57
2023/06/12 06:51:34;;;;;;;;;;;;;;;18.85;100.00;94762.94;5034414;28;1074;-57
2023/06/12 06:54:00;;;;;;;;;;;;;;;18.79;100.00;94769.22;5034154;28;1910;-57
2023/06/12 06:56:26;;;;;;;;;;;;;;;18.83;100.00;94767.75;5032945;28;1013;-57
2023/06/12 06:58:52;;;;;;;;;;;;;;;18.87;99.61;94766.25;5034439;28;989;-57
2023/06/12 07:01:18;;;;;;;;;;;;;;;18.86;99.30;94772.72;5033858;28;1069;-57
2023/06/12 07:03:45;;;;;;;;;;;;;;;18.84;98.10;94772.13;5052352;28;1430;-57
2023/06/12 07:06:11;;;;;;;;;;;;;;;18.87;100.00;94776.25;5053882;28;1096;-57
2023/06/12 07:08:37;;;;;;;;;;;;;;;18.87;100.00;94768.13;5052659;28;1120;-57
2023/06/12 07:11:03;;;;;;;;;;;;;;;18.94;100.00;94768.09;5053752;28;1044;-57
2023/06/12 07:13:29;;;;;;;;;;;;;;;19.16;100.00;94763.06;5053490;28;1985;-57
2023/06/12 07:15:56;;;;;;;;;;;;;;;19.21;100.00;94766.75;5052775;28;1023;-57
2023/06/12 07:18:22;;;;;;;;;;;;;;;19.34;100.00;94770.41;5053669;28;1053;-57
2023/06/12 07:20:48;;;;;;;;;;;;;;;19.54;100.00;94765.59;5052742;28;1040;-57
2023/06/12 07:23:14;;;;;;;;;;;;;;;19.72;100.00;94769.34;5035800;28;1564;-57
2023/06/12 07:25:40;;;;;;;;;;;;;;;19.65;98.87;94770.25;5038684;28;2576;-57
2023/06/12 07:28:07;;;;;;;;;;;;;;;19.99;99.37;94765.25;5033636;28;1036;-56
2023/06/12 07:30:33;;;;;;;;;;;;;;;20.15;97.62;94765.69;5033817;28;997;-57
2023/06/12 07:33:00;;;;;;;;;;;;;;;20.28;97.59;94765.50;5033872;28;972;-57
2023/06/12 07:35:26;;;;;;;;;;;;;;;20.48;95.38;94770.63;5033392;28;2004;-56
2023/06/12 07:37:52;;;;;;;;;;;;;;;20.53;96.63;94767.22;5033636;28;1036;-56
2023/06/12 07:40:19;;;;;;;;;;;;;;;20.42;94.02;94764.22;5032089;28;1038;-56
2023/06/12 07:42:45;;;;;;;;;;;;;;;20.42;98.72;94763.41;5033403;28;1005;-56
2023/06/12 07:45:12;;;;;;;;;;;;;;;20.97;94.79;94760.47;5033560;28;1045;-57
2023/06/12 07:47:38;;;;;;;;;;;;;;;21.73;88.74;94760.53;5033301;28;1038;-57
2023/06/12 07:50:04;;;;;;;;;;;;;;;22.30;87.27;94765.22;5033294;28;1045;-56
2023/06/12 07:52:30;;;;;;;;;;;;;;;21.98;89.92;94762.13;5033387;28;993;-57
2023/06/12 07:54:57;;;;;;;;;;;;;;;22.14;88.19;94755.09;5031974;28;1978;-57
2023/06/12 07:57:23;;;;;;;;;;;;;;;22.14;88.07;94765.97;5049174;28;2863;-56
2023/06/12 07:59:50;;;;;;;;;;;;;;;22.21;90.15;94758.50;5053366;28;965;-56
2023/06/12 08:02:16;;;;;;;;;;;;;;;22.10;90.91;94765.66;5052922;28;1704;-56
2023/06/12 08:04:42;;;;;;;;;;;;;;;22.05;88.66;94757.38;5052940;28;1109;-56
2023/06/12 08:07:10;;;;;;;;;;;;;;;21.87;88.23;94761.09;5053326;28;956;-55
2023/06/12 08:09:43;;;;;;;;;;;;;;;21.82;90.89;94769.16;5053389;28;1059;-56
2023/06/12 08:12:12;;;;;;;;;;;;;;;21.59;87.64;94759.16;5052761;28;1073;-56
2023/06/12 08:14:38;;;;;;;;;;;;;;;21.20;92.06;94759.63;5052985;28;1993;-56
2023/06/12 08:17:05;;;;;;;;;;;;;;;21.23;94.23;94755.63;5052885;28;1104;-56
2023/06/12 08:19:32;;;;;;;;;;;;;;;21.10;91.16;94755.88;5052829;28;1114;-56
2023/06/12 08:21:59;;;;;;;;;;;;;;;20.89;88.01;94757.25;5052913;28;1112;-56
2023/06/12 08:24:29;;;;;;;;;;;;;;;20.93;89.30;94756.56;5052724;28;1088;-56
2023/06/12 08:26:56;;;;;;;;;;;;;;;20.84;93.12;94758.78;5053334;28;1020;-56
2023/06/12 08:29:22;;;;;;;;;;;;;;;20.91;93.93;94757.88;5052695;28;1041;-56
2023/06/12 08:31:48;;;;;;;;;;;;;;;21.00;94.50;94767.31;5052929;28;977;-56
2023/06/12 08:34:14;;;;;;;;;;;;;;;21.17;92.79;94760.13;5051422;28;1989;-56
2023/06/12 08:36:41;;;;;;;;;;;;;;;21.09;95.65;94763.19;5054465;28;989;-56
2023/06/12 08:39:07;;;;;;;;;;;;;;;21.13;91.10;94760.81;5056606;28;925;-56
2023/06/12 08:41:34;;;;;;;;;;;;;;;21.13;93.46;94753.47;5055592;28;993;-56
2023/06/12 08:44:01;;;;;;;;;;;;;;;21.21;92.79;94753.16;5056872;28;1067;-56
2023/06/12 08:46:33;;;;;;;;;;;;;;;21.25;92.34;94754.31;5056599;28;977;-56
2023/06/12 08:49:00;;;;;;;;;;;;;;;21.37;91.97;94757.03;5056810;28;976;-56
2023/06/12 08:51:27;;;;;;;;;;;;;;;21.30;90.59;94753.59;5056350;28;1048;-56
2023/06/12 08:53:55;;;;;;;;;;;;;;;21.20;90.73;94751.47;5056205;28;1912;-56
2023/06/12 08:56:21;;;;;;;;;;;;;;;21.14;94.77;94755.16;5056470;28;1028;-56
2023/06/12 08:58:47;;;;;;;;;;;;;;;21.20;91.45;94751.47;5056628;28;961;-56
2023/06/12 09:01:14;;;;;;;;;;;;;;;21.41;94.46;94752.75;5056363;28;1035;-56
2023/06/12 09:03:43;;;;;;;;;;;;;;;21.50;89.22;94755.16;5056170;28;1684;-56
2023/06/12 09:06:11;;;;;;;;;;;;;;;21.33;89.70;94744.97;5056494;28;1028;-56
2023/06/12 09:08:39;;;;;;;;;;;;;;;21.41;91.87;94750.03;5056340;28;1016;-56
2023/06/12 09:11:05;;;;;;;;;;;;;;;21.42;93.71;94742.72;5056006;28;1044;-57
2023/06/12 09:13:43;;;;;;;;;;;;;;;21.49;91.01;94732.56;5056033;28;1913;-56
2023/06/12 09:16:10;;;;;;;;;;;;;;;21.66;90.75;94737.25;5055885;28;1116;-56
2023/06/12 09:18:46;;;;;;;;;;;;;;;21.75;89.58;94739.38;5056140;28;993;-56
2023/06/12 09:21:12;;;;;;;;;;;;;;;22.06;86.63;94733.69;5054657;28;1101;-56
2023/06/12 09:23:40;;;;;;;;;;;;;;;22.19;87.42;94725.25;5054954;28;1016;-57
2023/06/12 09:26:10;;;;;;;;;;;;;;;22.17;88.54;94728.19;5055693;28;1197;-57
2023/06/12 09:28:40;;;;;;;;;;;;;;;22.44;86.21;94727.63;5056109;28;1071;-56
2023/06/12 09:31:06;;;;;;;;;;;;;;;22.41;83.77;94726.22;5055674;28;1049;-56
2023/06/12 09:33:35;;;;;;;;;;;;;;;22.56;83.88;94724.84;5055410;28;1910;-56
2023/06/12 09:36:01;;;;;;;;;;;;;;;22.79;84.31;94713.78;5055528;28;1198;-57
2023/06/12 09:38:29;;;;;;;;;;;;;;;22.94;81.30;94715.09;5055684;28;953;-58
2023/06/12 09:40:55;;;;;;;;;;;;;;;22.89;82.77;94707.66;5055594;28;1008;-56
2023/06/12 09:43:23;;;;;;;;;;;;;;;22.78;84.48;94706.69;5055374;28;1050;-55
2023/06/12 09:45:49;;;;;;;;;;;;;;;22.96;84.19;94702.88;5054340;28;973;-56
2023/06/12 09:48:16;;;;;;;;;;;;;;;22.86;82.45;94700.00;5055196;28;953;-56
2023/06/12 09:50:42;;;;;;;;;;;;;;;23.08;82.47;94701.97;5055662;28;1005;-56
2023/06/12 09:53:09;;;;;;;;;;;;;;;23.16;81.84;94696.94;5055447;28;1054;-56
2023/06/12 09:55:37;;;;;;;;;;;;;;;23.34;77.69;94693.06;5055103;28;1906;-56
2023/06/12 09:58:05;;;;;;;;;;;;;;;23.46;80.24;94697.59;5055245;28;946;-57
2023/06/12 10:00:31;;;;;;;;;;;;;;;23.80;79.82;94695.59;5055069;28;1097;-57
2023/06/12 10:03:04;;;;;;;;;;;;;;;23.77;78.09;94696.06;5053992;28;1723;-56
2023/06/12 10:05:38;;;;;;;;;;;;;;;23.53;72.61;94696.31;5054912;28;1125;-57
2023/06/12 10:08:05;;;;;;;;;;;;;;;23.25;72.29;94691.84;5054022;28;2348;-57
2023/06/12 10:10:33;;;;;;;;;;;;;;;23.44;74.50;94692.38;5053876;28;2835;-58
2023/06/12 10:13:00;;;;;;;;;;;;;;;23.41;72.41;94692.06;5054796;28;1323;-57
2023/06/12 10:15:28;;;;;;;;;;;;;;;23.37;70.57;94689.84;5047306;28;2612;-57
2023/06/12 10:17:55;;;;;;;;;;;;;;;23.68;69.38;94683.97;5054679;28;1112;-57
2023/06/12 10:20:22;;;;;;;;;;;;;;;23.86;72.94;94682.81;5054710;28;1061;-57
2023/06/12 10:22:48;;;;;;;;;;;;;;;24.15;67.32;94678.78;5055030;28;977;-57
2023/06/12 10:25:15;;;;;;;;;;;;;;;24.30;68.25;94671.81;5054644;28;1060;-57
2023/06/12 10:27:42;;;;;;;;;;;;;;;24.33;68.69;94671.28;5054863;28;1225;-57
2023/06/12 10:30:10;;;;;;;;;;;;;;;24.05;67.51;94669.66;5054317;28;1140;-58
2023/06/12 10:32:37;;;;;;;;;;;;;;;24.12;65.54;94667.56;5051592;28;2856;-56
2023/06/12 10:35:03;;;;;;;;;;;;;;;24.58;74.23;94656.25;5054438;28;1906;-59
2023/06/12 10:37:29;;;;;;;;;;;;;;;24.85;73.35;94657.00;5054545;28;1235;-59
2023/06/12 10:40:05;;;;;;;;;;;;;;;24.74;73.28;94655.28;5053552;28;1035;-59
2023/06/12 10:42:41;;;;;;;;;;;;;;;24.57;69.91;94649.13;5052978;28;1024;-59
2023/06/12 10:45:16;;;;;;;;;;;;;;;24.72;72.29;94652.81;5053624;28;2854;-59
2023/06/12 10:47:42;;;;;;;;;;;;;;;24.43;67.20;94646.78;5053461;28;2854;-58
2023/06/12 10:50:08;;;;;;;;;;;;;;;24.04;71.05;94648.91;5050278;28;2473;-57
2023/06/12 10:52:35;;;;;;;;;;;;;;;23.90;68.23;94654.78;5034243;28;1569;-56
2023/06/12 10:55:20;;;;;;;;;;;;;;;23.74;68.71;94651.00;5034181;28;1902;-56
2023/06/12 10:57:48;;;;;;;;;;;;;;;23.76;69.15;94645.28;5034351;28;945;-57
2023/06/12 11:00:17;;;;;;;;;;;;;;;23.96;69.47;94642.00;5033349;28;1029;-57
2023/06/12 11:02:55;;;;;;;;;;;;;;;24.34;69.90;94629.25;5044131;28;1390;-58
2023/06/12 11:05:21;;;;;;;;;;;;;;;24.35;66.07;94634.44;5051586;28;1232;-57
2023/06/12 11:07:47;;;;;;;;;;;;;;;24.60;70.49;94626.75;5053715;28;1108;-57
2023/06/12 11:10:14;;;;;;;;;;;;;;;25.04;70.24;94621.00;5053638;28;1104;-57
2023/06/12 11:12:47;;;;;;;;;;;;;;;24.94;69.06;94627.25;5054074;28;1029;-58
2023/06/12 11:15:14;;;;;;;;;;;;;;;24.70;70.22;94629.53;5053661;28;1919;-58
2023/06/12 11:17:40;;;;;;;;;;;;;;;24.50;73.76;94622.00;5053679;28;1101;-58
2023/06/12 11:20:07;;;;;;;;;;;;;;;24.48;74.40;94618.69;5053592;28;968;-58
2023/06/12 11:22:33;;;;;;;;;;;;;;;24.51;75.25;94615.44;5053456;28;1096;-58
2023/06/12 11:25:00;;;;;;;;;;;;;;;24.69;73.97;94620.53;5053764;28;996;-58
2023/06/12 11:27:26;;;;;;;;;;;;;;;24.93;72.70;94615.50;5053566;28;962;-58
2023/06/12 11:29:52;;;;;;;;;;;;;;;24.87;71.45;94624.75;5053632;28;973;-58
2023/06/12 11:32:19;;;;;;;;;;;;;;;24.76;70.66;94620.31;5053635;28;985;-58
2023/06/12 11:34:46;;;;;;;;;;;;;;;24.59;71.32;94615.00;5053632;28;2006;-57
2023/06/12 11:37:15;;;;;;;;;;;;;;;24.48;71.42;94615.97;5052631;28;2391;-58
2023/06/12 11:39:41;;;;;;;;;;;;;;;24.21;70.99;94619.56;5035498;28;2894;-57
2023/06/12 11:42:08;;;;;;;;;;;;;;;24.16;73.49;94616.78;5032581;28;970;-56
2023/06/12 11:44:34;;;;;;;;;;;;;;;24.18;74.17;94609.16;5036264;28;2671;-56
2023/06/12 11:47:00;;;;;;;;;;;;;;;24.16;72.54;94605.88;5033378;28;970;-57
2023/06/12 11:49:30;;;;;;;;;;;;;;;24.07;72.64;94612.88;5033545;28;1072;-57
2023/06/12 11:51:57;;;;;;;;;;;;;;;23.91;74.55;94604.53;5033537;28;965;-57
2023/06/12 11:54:23;;;;;;;;;;;;;;;24.12;76.15;94602.00;5033075;28;1988;-57
2023/06/12 11:56:50;;;;;;;;;;;;;;;24.35;78.51;94600.84;5033215;28;1050;-58
2023/06/12 11:59:16;;;;;;;;;;;;;;;24.58;77.06;94596.94;5033071;28;1079;-58
2023/06/12 12:01:45;;;;;;;;;;;;;;;24.70;76.33;94594.84;5034919;28;1425;-57
2023/06/12 12:04:11;;;;;;;;;;;;;;;24.63;74.33;94590.69;5052556;28;1543;-58
2023/06/12 12:06:46;;;;;;;;;;;;;;;24.54;73.78;94593.91;5053049;28;1042;-58
2023/06/12 12:09:13;;;;;;;;;;;;;;;24.43;75.04;94585.88;5052921;28;1046;-58
2023/06/12 12:11:39;;;;;;;;;;;;;;;24.21;74.51;94595.00;5056337;28;1112;-57
2023/06/12 12:14:05;;;;;;;;;;;;;;;24.05;76.24;94593.19;5056982;28;1991;-57
2023/06/12 12:16:38;;;;;;;;;;;;;;;23.92;75.07;94595.28;5057120;28;969;-57
2023/06/12 12:19:14;;;;;;;;;;;;;;;23.82;77.70;94597.06;5057314;28;1063;-57
2023/06/12 12:21:43;;;;;;;;;;;;;;;23.82;76.58;94602.53;5056867;28;1066;-58
2023/06/12 12:24:09;;;;;;;;;;;;;;;23.69;75.10;94601.00;5055826;28;1064;-57
2023/06/12 12:26:41;;;;;;;;;;;;;;;23.63;77.25;94602.84;5056877;28;1064;-57
2023/06/12 12:29:08;;;;;;;;;;;;;;;23.59;78.56;94597.06;5056770;28;1193;-57
2023/06/12 12:31:35;;;;;;;;;;;;;;;23.48;80.33;94592.59;5056785;28;1124;-56
2023/06/12 12:34:02;;;;;;;;;;;;;;;23.30;81.21;94593.75;5056865;28;1983;-56
2023/06/12 12:36:28;;;;;;;;;;;;;;;23.23;82.24;94595.84;5054949;28;2942;-56
2023/06/12 12:38:54;;;;;;;;;;;;;;;23.13;83.63;94598.44;5056674;28;1104;-57
2023/06/12 12:41:20;;;;;;;;;;;;;;;22.90;81.87;94588.56;5055413;28;1045;-56
2023/06/12 12:43:47;;;;;;;;;;;;;;;22.77;82.38;94589.75;5056622;28;973;-61
2023/06/12 12:46:13;;;;;;;;;;;;;;;22.68;81.96;94591.25;5056410;28;1073;-61
2023/06/12 12:48:39;;;;;;;;;;;;;;;22.55;83.43;94593.25;5089171;28;985;-60
2023/06/12 12:51:06;;;;;;;;;;;;;;;22.36;87.67;94591.88;5056561;28;1016;-61
2023/06/12 12:53:32;;;;;;;;;;;;;;;22.15;89.04;94588.78;5056679;28;1997;-58